sensor_id;sensor_type;location;lat;lon;timestamp;temperature;humidity
431;DHT22;202;48.764;9.172;2023-06-26T00:01:55;24.50;20.80
431;DHT22;202;48.764;9.172;2023-06-26T00:04:22;24.50;21.20
431;DHT22;202;48.764;9.172;2023-06-26T00:06:50;24.40;21.50
431;DHT22;202;48.764;9.172;2023-06-26T00:09:17;24.40;21.90
431;DHT22;202;48.764;9.172;2023-06-26T00:11:43;24.30;21.70
431;DHT22;202;48.764;9.172;2023-06-26T00:14:10;24.20;21.70
431;DHT22;202;48.764;9.172;2023-06-26T00:16:37;24.30;22.00
431;DHT22;202;48.764;9.172;2023-06-26T00:19:04;24.30;21.40
431;DHT22;202;48.764;9.172;2023-06-26T00:21:30;24.30;21.50
431;DHT22;202;48.764;9.172;2023-06-26T00:23:58;24.20;21.90
431;DHT22;202;48.764;9.172;2023-06-26T00:26:25;24.20;21.80
431;DHT22;202;48.764;9.172;2023-06-26T00:28:52;24.30;21.30
431;DHT22;202;48.764;9.172;2023-06-26T00:31:19;24.20;21.70
431;DHT22;202;48.764;9.172;2023-06-26T00:33:45;24.20;21.30
431;DHT22;202;48.764;9.172;2023-06-26T00:36:12;24.20;21.30
431;DHT22;202;48.764;9.172;2023-06-26T00:38:39;24.30;21.30
431;DHT22;202;48.764;9.172;2023-06-26T00:41:08;24.40;20.90
431;DHT22;202;48.764;9.172;2023-06-26T00:43:38;24.40;21.10
431;DHT22;202;48.764;9.172;2023-06-26T00:46:09;24.40;21.00
431;DHT22;202;48.764;9.172;2023-06-26T00:48:36;24.40;21.10
431;DHT22;202;48.764;9.172;2023-06-26T00:51:03;24.50;20.90
431;DHT22;202;48.764;9.172;2023-06-26T00:53:31;24.50;20.80
431;DHT22;202;48.764;9.172;2023-06-26T00:55:57;24.50;20.90
431;DHT22;202;48.764;9.172;2023-06-26T00:58:26;24.50;20.90
431;DHT22;202;48.764;9.172;2023-06-26T01:00:53;24.50;20.80
431;DHT22;202;48.764;9.172;2023-06-26T01:03:21;24.60;20.60
431;DHT22;202;48.764;9.172;2023-06-26T01:05:49;24.60;20.70
431;DHT22;202;48.764;9.172;2023-06-26T01:08:16;24.50;20.80
431;DHT22;202;48.764;9.172;2023-06-26T01:10:44;24.40;20.80
431;DHT22;202;48.764;9.172;2023-06-26T01:13:12;24.40;21.00
431;DHT22;202;48.764;9.172;2023-06-26T01:15:41;24.30;21.00
431;DHT22;202;48.764;9.172;2023-06-26T01:18:08;24.30;46.40
431;DHT22;202;48.764;9.172;2023-06-26T01:20:36;24.30;50.00
431;DHT22;202;48.764;9.172;2023-06-26T01:23:16;24.20;50.70
431;DHT22;202;48.764;9.172;2023-06-26T01:25:56;24.10;51.30
431;DHT22;202;48.764;9.172;2023-06-26T01:28:29;24.00;51.20
431;DHT22;202;48.764;9.172;2023-06-26T01:30:56;24.00;51.50
431;DHT22;202;48.764;9.172;2023-06-26T01:33:24;24.00;51.70
431;DHT22;202;48.764;9.172;2023-06-26T01:35:51;24.00;51.30
431;DHT22;202;48.764;9.172;2023-06-26T01:38:19;23.90;52.00
431;DHT22;202;48.764;9.172;2023-06-26T01:40:46;23.80;52.10
431;DHT22;202;48.764;9.172;2023-06-26T01:43:18;23.70;52.30
431;DHT22;202;48.764;9.172;2023-06-26T01:45:50;23.50;52.70
431;DHT22;202;48.764;9.172;2023-06-26T01:48:22;23.10;53.10
431;DHT22;202;48.764;9.172;2023-06-26T01:50:51;23.10;53.70
431;DHT22;202;48.764;9.172;2023-06-26T01:53:21;22.80;54.00
431;DHT22;202;48.764;9.172;2023-06-26T01:55:52;22.90;54.10
431;DHT22;202;48.764;9.172;2023-06-26T01:58:22;22.90;54.00
431;DHT22;202;48.764;9.172;2023-06-26T02:00:52;22.70;54.90
431;DHT22;202;48.764;9.172;2023-06-26T02:03:19;22.70;54.40
431;DHT22;202;48.764;9.172;2023-06-26T02:05:49;22.60;54.50
431;DHT22;202;48.764;9.172;2023-06-26T02:08:16;22.60;54.30
431;DHT22;202;48.764;9.172;2023-06-26T02:10:43;22.60;54.20
431;DHT22;202;48.764;9.172;2023-06-26T02:13:10;22.90;53.80
431;DHT22;202;48.764;9.172;2023-06-26T02:15:37;23.10;54.20
431;DHT22;202;48.764;9.172;2023-06-26T02:18:05;23.20;53.30
431;DHT22;202;48.764;9.172;2023-06-26T02:20:31;23.00;53.30
431;DHT22;202;48.764;9.172;2023-06-26T02:22:58;22.90;53.50
431;DHT22;202;48.764;9.172;2023-06-26T02:25:25;22.90;54.00
431;DHT22;202;48.764;9.172;2023-06-26T02:27:52;22.80;54.90
431;DHT22;202;48.764;9.172;2023-06-26T02:30:19;22.80;54.40
431;DHT22;202;48.764;9.172;2023-06-26T02:32:46;22.80;54.70
431;DHT22;202;48.764;9.172;2023-06-26T02:35:14;22.80;55.00
431;DHT22;202;48.764;9.172;2023-06-26T02:37:40;22.80;55.10
431;DHT22;202;48.764;9.172;2023-06-26T02:40:08;22.90;55.50
431;DHT22;202;48.764;9.172;2023-06-26T02:42:35;22.70;55.30
431;DHT22;202;48.764;9.172;2023-06-26T02:45:02;22.70;55.50
431;DHT22;202;48.764;9.172;2023-06-26T02:47:29;22.70;56.20
431;DHT22;202;48.764;9.172;2023-06-26T02:49:56;22.70;56.20
431;DHT22;202;48.764;9.172;2023-06-26T02:52:24;22.80;55.70
431;DHT22;202;48.764;9.172;2023-06-26T02:54:51;22.70;55.80
431;DHT22;202;48.764;9.172;2023-06-26T02:57:17;22.90;55.20
431;DHT22;202;48.764;9.172;2023-06-26T02:59:44;23.00;54.50
431;DHT22;202;48.764;9.172;2023-06-26T03:02:11;23.20;55.20
431;DHT22;202;48.764;9.172;2023-06-26T03:04:38;23.30;54.40
431;DHT22;202;48.764;9.172;2023-06-26T03:07:04;23.20;54.70
431;DHT22;202;48.764;9.172;2023-06-26T03:09:33;23.20;54.60
431;DHT22;202;48.764;9.172;2023-06-26T03:11:59;23.30;54.30
431;DHT22;202;48.764;9.172;2023-06-26T03:14:26;23.30;54.20
431;DHT22;202;48.764;9.172;2023-06-26T03:16:54;23.20;54.80
431;DHT22;202;48.764;9.172;2023-06-26T03:19:23;23.20;54.70
431;DHT22;202;48.764;9.172;2023-06-26T03:21:50;23.20;54.60
431;DHT22;202;48.764;9.172;2023-06-26T03:24:17;23.10;54.50
431;DHT22;202;48.764;9.172;2023-06-26T03:26:45;23.20;54.40
431;DHT22;202;48.764;9.172;2023-06-26T03:29:11;23.30;54.40
431;DHT22;202;48.764;9.172;2023-06-26T03:31:38;23.20;54.40
431;DHT22;202;48.764;9.172;2023-06-26T03:34:05;23.20;54.40
431;DHT22;202;48.764;9.172;2023-06-26T03:36:32;23.20;53.70
431;DHT22;202;48.764;9.172;2023-06-26T03:38:58;23.30;52.90
431;DHT22;202;48.764;9.172;2023-06-26T03:41:26;23.30;54.40
431;DHT22;202;48.764;9.172;2023-06-26T03:43:54;23.30;54.30
431;DHT22;202;48.764;9.172;2023-06-26T03:46:22;23.10;54.00
431;DHT22;202;48.764;9.172;2023-06-26T03:48:49;23.30;54.10
431;DHT22;202;48.764;9.172;2023-06-26T03:51:16;23.30;54.30
431;DHT22;202;48.764;9.172;2023-06-26T03:53:42;23.30;54.10
431;DHT22;202;48.764;9.172;2023-06-26T03:56:09;23.40;53.60
431;DHT22;202;48.764;9.172;2023-06-26T03:58:36;23.30;53.80
431;DHT22;202;48.764;9.172;2023-06-26T04:01:04;23.20;53.80
431;DHT22;202;48.764;9.172;2023-06-26T04:03:31;23.20;53.60
431;DHT22;202;48.764;9.172;2023-06-26T04:05:58;23.30;54.50
431;DHT22;202;48.764;9.172;2023-06-26T04:08:25;23.30;56.70
431;DHT22;202;48.764;9.172;2023-06-26T04:10:55;23.40;56.60
431;DHT22;202;48.764;9.172;2023-06-26T04:13:23;23.30;57.00
431;DHT22;202;48.764;9.172;2023-06-26T04:15:59;23.40;57.30
431;DHT22;202;48.764;9.172;2023-06-26T04:18:29;23.20;56.70
431;DHT22;202;48.764;9.172;2023-06-26T04:21:07;23.30;57.50
431;DHT22;202;48.764;9.172;2023-06-26T04:23:38;23.10;57.60
431;DHT22;202;48.764;9.172;2023-06-26T04:26:15;22.80;56.70
431;DHT22;202;48.764;9.172;2023-06-26T04:28:42;23.20;57.40
431;DHT22;202;48.764;9.172;2023-06-26T04:31:17;23.20;57.90
431;DHT22;202;48.764;9.172;2023-06-26T04:33:47;23.30;57.30
431;DHT22;202;48.764;9.172;2023-06-26T04:36:20;23.20;57.60
431;DHT22;202;48.764;9.172;2023-06-26T04:38:47;23.30;58.60
431;DHT22;202;48.764;9.172;2023-06-26T04:41:15;23.30;59.70
431;DHT22;202;48.764;9.172;2023-06-26T04:43:48;23.40;58.30
431;DHT22;202;48.764;9.172;2023-06-26T04:46:16;23.30;58.30
431;DHT22;202;48.764;9.172;2023-06-26T04:48:43;23.30;56.70
431;DHT22;202;48.764;9.172;2023-06-26T04:51:20;23.40;56.90
431;DHT22;202;48.764;9.172;2023-06-26T04:53:54;23.50;59.20
431;DHT22;202;48.764;9.172;2023-06-26T04:56:26;23.50;56.90
431;DHT22;202;48.764;9.172;2023-06-26T04:58:53;23.10;55.80
431;DHT22;202;48.764;9.172;2023-06-26T05:03:57;23.60;54.00
431;DHT22;202;48.764;9.172;2023-06-26T05:06:29;23.80;55.20
431;DHT22;202;48.764;9.172;2023-06-26T05:08:59;23.80;54.10
431;DHT22;202;48.764;9.172;2023-06-26T05:11:31;24.00;54.90
431;DHT22;202;48.764;9.172;2023-06-26T05:14:00;24.00;53.80
431;DHT22;202;48.764;9.172;2023-06-26T05:16:33;24.30;54.70
431;DHT22;202;48.764;9.172;2023-06-26T05:21:34;24.20;53.40
431;DHT22;202;48.764;9.172;2023-06-26T05:24:03;24.40;53.80
431;DHT22;202;48.764;9.172;2023-06-26T05:26:31;24.50;53.90
431;DHT22;202;48.764;9.172;2023-06-26T05:28:59;24.50;54.00
431;DHT22;202;48.764;9.172;2023-06-26T05:31:27;24.50;54.10
431;DHT22;202;48.764;9.172;2023-06-26T05:33:55;24.70;53.50
431;DHT22;202;48.764;9.172;2023-06-26T05:36:24;24.80;54.20
431;DHT22;202;48.764;9.172;2023-06-26T05:38:56;24.70;54.20
431;DHT22;202;48.764;9.172;2023-06-26T05:41:23;25.00;54.10
431;DHT22;202;48.764;9.172;2023-06-26T05:43:50;24.80;53.80
431;DHT22;202;48.764;9.172;2023-06-26T05:46:20;24.90;54.60
431;DHT22;202;48.764;9.172;2023-06-26T05:48:47;24.90;54.60
431;DHT22;202;48.764;9.172;2023-06-26T05:51:17;24.90;54.30
431;DHT22;202;48.764;9.172;2023-06-26T05:56:33;25.10;55.00
431;DHT22;202;48.764;9.172;2023-06-26T05:59:01;25.30;52.80
431;DHT22;202;48.764;9.172;2023-06-26T06:01:31;25.50;53.40
431;DHT22;202;48.764;9.172;2023-06-26T06:03:59;25.50;53.10
431;DHT22;202;48.764;9.172;2023-06-26T06:06:26;25.80;53.50
431;DHT22;202;48.764;9.172;2023-06-26T06:08:52;25.80;53.40
431;DHT22;202;48.764;9.172;2023-06-26T06:11:21;26.10;54.20
431;DHT22;202;48.764;9.172;2023-06-26T06:13:49;26.10;53.10
431;DHT22;202;48.764;9.172;2023-06-26T06:16:17;26.20;53.30
431;DHT22;202;48.764;9.172;2023-06-26T06:18:44;26.30;53.20
431;DHT22;202;48.764;9.172;2023-06-26T06:21:11;26.40;53.70
431;DHT22;202;48.764;9.172;2023-06-26T06:23:38;26.70;55.10
431;DHT22;202;48.764;9.172;2023-06-26T06:26:07;26.90;53.40
431;DHT22;202;48.764;9.172;2023-06-26T06:28:38;26.80;53.80
431;DHT22;202;48.764;9.172;2023-06-26T06:43:35;29.40;17.00
431;DHT22;202;48.764;9.172;2023-06-26T06:46:02;29.90;16.30
431;DHT22;202;48.764;9.172;2023-06-26T06:48:34;30.90;15.00
431;DHT22;202;48.764;9.172;2023-06-26T06:51:01;32.10;13.70
431;DHT22;202;48.764;9.172;2023-06-26T06:53:29;33.30;11.60
431;DHT22;202;48.764;9.172;2023-06-26T06:55:56;33.70;10.50
431;DHT22;202;48.764;9.172;2023-06-26T06:58:23;33.20;11.20
431;DHT22;202;48.764;9.172;2023-06-26T07:00:57;33.60;11.00
431;DHT22;202;48.764;9.172;2023-06-26T07:03:24;34.40;9.90
431;DHT22;202;48.764;9.172;2023-06-26T07:05:52;35.40;8.90
431;DHT22;202;48.764;9.172;2023-06-26T07:08:19;35.90;7.90
431;DHT22;202;48.764;9.172;2023-06-26T07:10:46;36.50;7.20
431;DHT22;202;48.764;9.172;2023-06-26T07:13:13;37.20;6.90
431;DHT22;202;48.764;9.172;2023-06-26T07:15:40;36.90;6.70
431;DHT22;202;48.764;9.172;2023-06-26T07:18:08;37.20;7.10
431;DHT22;202;48.764;9.172;2023-06-26T07:20:35;37.60;6.40
431;DHT22;202;48.764;9.172;2023-06-26T07:23:04;37.90;5.80
431;DHT22;202;48.764;9.172;2023-06-26T07:25:30;37.90;5.60
431;DHT22;202;48.764;9.172;2023-06-26T07:27:57;38.10;5.50
431;DHT22;202;48.764;9.172;2023-06-26T07:30:24;38.30;5.70
431;DHT22;202;48.764;9.172;2023-06-26T07:32:51;38.60;4.60
431;DHT22;202;48.764;9.172;2023-06-26T07:35:18;38.80;5.00
431;DHT22;202;48.764;9.172;2023-06-26T07:37:45;38.90;4.10
431;DHT22;202;48.764;9.172;2023-06-26T07:40:13;39.10;4.30
431;DHT22;202;48.764;9.172;2023-06-26T07:42:59;39.50;4.20
431;DHT22;202;48.764;9.172;2023-06-26T07:45:36;39.70;4.30
431;DHT22;202;48.764;9.172;2023-06-26T07:48:11;39.90;3.90
431;DHT22;202;48.764;9.172;2023-06-26T07:50:40;40.10;3.10
431;DHT22;202;48.764;9.172;2023-06-26T07:53:12;40.10;3.10
431;DHT22;202;48.764;9.172;2023-06-26T07:55:51;40.30;3.00
431;DHT22;202;48.764;9.172;2023-06-26T07:58:18;40.40;3.00
431;DHT22;202;48.764;9.172;2023-06-26T08:01:15;40.60;2.20
431;DHT22;202;48.764;9.172;2023-06-26T08:03:42;40.40;2.90
431;DHT22;202;48.764;9.172;2023-06-26T08:06:11;39.50;3.80
431;DHT22;202;48.764;9.172;2023-06-26T08:09:14;39.60;4.20
431;DHT22;202;48.764;9.172;2023-06-26T08:11:47;39.70;4.00
431;DHT22;202;48.764;9.172;2023-06-26T08:14:14;39.60;4.00
431;DHT22;202;48.764;9.172;2023-06-26T08:16:43;39.80;3.50
431;DHT22;202;48.764;9.172;2023-06-26T08:19:11;39.50;4.20
431;DHT22;202;48.764;9.172;2023-06-26T08:21:39;39.50;3.60
431;DHT22;202;48.764;9.172;2023-06-26T08:24:06;39.60;3.60
431;DHT22;202;48.764;9.172;2023-06-26T08:26:34;39.60;3.80
431;DHT22;202;48.764;9.172;2023-06-26T08:29:02;39.80;3.10
431;DHT22;202;48.764;9.172;2023-06-26T08:31:33;39.80;2.80
431;DHT22;202;48.764;9.172;2023-06-26T08:34:05;39.50;3.30
431;DHT22;202;48.764;9.172;2023-06-26T08:36:34;39.90;3.00
431;DHT22;202;48.764;9.172;2023-06-26T08:39:07;39.70;2.80
431;DHT22;202;48.764;9.172;2023-06-26T08:41:34;39.80;3.00
431;DHT22;202;48.764;9.172;2023-06-26T08:44:03;40.00;2.60
431;DHT22;202;48.764;9.172;2023-06-26T08:46:31;39.90;2.30
431;DHT22;202;48.764;9.172;2023-06-26T08:49:10;39.90;2.20
431;DHT22;202;48.764;9.172;2023-06-26T08:51:53;39.90;2.30
431;DHT22;202;48.764;9.172;2023-06-26T08:54:27;39.90;2.90
431;DHT22;202;48.764;9.172;2023-06-26T08:56:56;39.60;2.60
431;DHT22;202;48.764;9.172;2023-06-26T08:59:28;39.20;2.90
431;DHT22;202;48.764;9.172;2023-06-26T09:01:59;39.40;3.10
431;DHT22;202;48.764;9.172;2023-06-26T09:04:29;38.70;3.70
431;DHT22;202;48.764;9.172;2023-06-26T09:06:59;38.10;4.20
431;DHT22;202;48.764;9.172;2023-06-26T09:09:28;37.90;4.60
431;DHT22;202;48.764;9.172;2023-06-26T09:12:03;37.90;4.90
431;DHT22;202;48.764;9.172;2023-06-26T09:14:48;37.90;4.70
431;DHT22;202;48.764;9.172;2023-06-26T09:17:26;37.90;4.80
431;DHT22;202;48.764;9.172;2023-06-26T09:20:18;37.40;5.00
431;DHT22;202;48.764;9.172;2023-06-26T09:22:50;36.90;5.30
431;DHT22;202;48.764;9.172;2023-06-26T09:27:59;36.30;6.20
431;DHT22;202;48.764;9.172;2023-06-26T09:30:31;36.30;6.80
431;DHT22;202;48.764;9.172;2023-06-26T09:33:47;36.50;6.50
431;DHT22;202;48.764;9.172;2023-06-26T09:36:05;36.50;5.60
431;DHT22;202;48.764;9.172;2023-06-26T10:15:15;34.80;8.70
431;DHT22;202;48.764;9.172;2023-06-26T10:21:39;34.10;10.40
431;DHT22;202;48.764;9.172;2023-06-26T10:30:26;33.30;11.40
431;DHT22;202;48.764;9.172;2023-06-26T10:32:54;33.20;11.90
431;DHT22;202;48.764;9.172;2023-06-26T10:35:21;33.00;11.70
431;DHT22;202;48.764;9.172;2023-06-26T10:37:49;32.90;12.00
431;DHT22;202;48.764;9.172;2023-06-26T10:40:23;32.70;12.90
431;DHT22;202;48.764;9.172;2023-06-26T10:42:51;32.50;12.90
431;DHT22;202;48.764;9.172;2023-06-26T10:45:42;32.40;12.60
431;DHT22;202;48.764;9.172;2023-06-26T10:48:09;32.10;13.00
431;DHT22;202;48.764;9.172;2023-06-26T10:50:36;32.10;12.90
431;DHT22;202;48.764;9.172;2023-06-26T10:53:12;32.30;12.80
431;DHT22;202;48.764;9.172;2023-06-26T10:55:47;32.30;12.80
431;DHT22;202;48.764;9.172;2023-06-26T10:58:40;32.50;12.90
431;DHT22;202;48.764;9.172;2023-06-26T11:01:22;32.60;12.80
431;DHT22;202;48.764;9.172;2023-06-26T11:04:04;32.70;12.60
431;DHT22;202;48.764;9.172;2023-06-26T11:06:31;32.60;12.70
431;DHT22;202;48.764;9.172;2023-06-26T11:09:07;32.60;12.50
431;DHT22;202;48.764;9.172;2023-06-26T11:11:56;32.60;12.40
431;DHT22;202;48.764;9.172;2023-06-26T11:14:30;32.50;12.90
431;DHT22;202;48.764;9.172;2023-06-26T11:17:02;32.60;13.00
431;DHT22;202;48.764;9.172;2023-06-26T11:19:29;32.60;13.00
431;DHT22;202;48.764;9.172;2023-06-26T11:22:02;32.50;12.80
431;DHT22;202;48.764;9.172;2023-06-26T11:24:30;32.60;12.80
431;DHT22;202;48.764;9.172;2023-06-26T11:27:01;32.50;13.00
431;DHT22;202;48.764;9.172;2023-06-26T11:29:29;32.50;13.20
431;DHT22;202;48.764;9.172;2023-06-26T11:32:02;32.70;13.00
431;DHT22;202;48.764;9.172;2023-06-26T11:34:31;32.80;12.70
431;DHT22;202;48.764;9.172;2023-06-26T11:36:59;32.60;13.20
431;DHT22;202;48.764;9.172;2023-06-26T11:39:30;32.40;14.00
431;DHT22;202;48.764;9.172;2023-06-26T11:41:57;32.60;14.10
431;DHT22;202;48.764;9.172;2023-06-26T11:44:24;32.50;14.00
431;DHT22;202;48.764;9.172;2023-06-26T11:46:52;32.60;14.10
431;DHT22;202;48.764;9.172;2023-06-26T11:49:22;32.50;14.10
431;DHT22;202;48.764;9.172;2023-06-26T11:51:51;32.30;14.00
431;DHT22;202;48.764;9.172;2023-06-26T11:54:30;32.10;13.90
431;DHT22;202;48.764;9.172;2023-06-26T11:56:58;31.80;14.30
431;DHT22;202;48.764;9.172;2023-06-26T11:59:36;31.90;14.60
431;DHT22;202;48.764;9.172;2023-06-26T12:02:07;31.90;14.80
431;DHT22;202;48.764;9.172;2023-06-26T12:04:38;32.10;14.90
431;DHT22;202;48.764;9.172;2023-06-26T12:07:09;32.20;14.80
431;DHT22;202;48.764;9.172;2023-06-26T12:09:39;32.10;15.90
431;DHT22;202;48.764;9.172;2023-06-26T12:12:09;31.80;16.70
431;DHT22;202;48.764;9.172;2023-06-26T12:14:36;32.00;16.90
431;DHT22;202;48.764;9.172;2023-06-26T12:17:05;32.00;17.10
431;DHT22;202;48.764;9.172;2023-06-26T12:19:36;32.20;16.50
431;DHT22;202;48.764;9.172;2023-06-26T12:22:07;32.20;16.50
431;DHT22;202;48.764;9.172;2023-06-26T12:24:37;32.20;16.80
431;DHT22;202;48.764;9.172;2023-06-26T12:27:07;32.20;16.90
431;DHT22;202;48.764;9.172;2023-06-26T12:29:35;32.00;16.70
431;DHT22;202;48.764;9.172;2023-06-26T12:32:02;31.90;16.60
431;DHT22;202;48.764;9.172;2023-06-26T12:34:31;31.70;17.30
431;DHT22;202;48.764;9.172;2023-06-26T12:37:01;31.70;16.90
431;DHT22;202;48.764;9.172;2023-06-26T12:39:45;31.70;17.20
431;DHT22;202;48.764;9.172;2023-06-26T12:42:14;31.70;17.30
431;DHT22;202;48.764;9.172;2023-06-26T12:44:41;31.80;17.40
431;DHT22;202;48.764;9.172;2023-06-26T12:47:08;31.70;17.20
431;DHT22;202;48.764;9.172;2023-06-26T12:49:36;31.70;17.60
431;DHT22;202;48.764;9.172;2023-06-26T12:52:05;31.60;16.80
431;DHT22;202;48.764;9.172;2023-06-26T12:54:33;31.50;17.00
431;DHT22;202;48.764;9.172;2023-06-26T12:57:00;31.60;17.50
431;DHT22;202;48.764;9.172;2023-06-26T12:59:29;31.50;17.00
431;DHT22;202;48.764;9.172;2023-06-26T13:01:56;31.60;17.40
431;DHT22;202;48.764;9.172;2023-06-26T13:04:23;31.60;17.00
431;DHT22;202;48.764;9.172;2023-06-26T13:06:50;31.70;17.10
431;DHT22;202;48.764;9.172;2023-06-26T13:09:17;31.70;17.20
431;DHT22;202;48.764;9.172;2023-06-26T13:11:45;31.80;17.20
431;DHT22;202;48.764;9.172;2023-06-26T13:14:12;31.70;17.10
431;DHT22;202;48.764;9.172;2023-06-26T13:16:40;31.60;17.20
431;DHT22;202;48.764;9.172;2023-06-26T13:19:07;31.60;17.00
431;DHT22;202;48.764;9.172;2023-06-26T13:21:34;31.50;17.10
431;DHT22;202;48.764;9.172;2023-06-26T13:24:01;31.40;16.90
431;DHT22;202;48.764;9.172;2023-06-26T13:26:29;31.40;17.00
431;DHT22;202;48.764;9.172;2023-06-26T13:28:59;31.30;17.00
431;DHT22;202;48.764;9.172;2023-06-26T13:31:26;31.40;16.90
431;DHT22;202;48.764;9.172;2023-06-26T13:33:53;31.50;16.90
431;DHT22;202;48.764;9.172;2023-06-26T13:36:20;31.60;16.60
431;DHT22;202;48.764;9.172;2023-06-26T13:38:47;31.50;16.40
431;DHT22;202;48.764;9.172;2023-06-26T13:41:21;31.30;16.10
431;DHT22;202;48.764;9.172;2023-06-26T13:43:50;31.20;16.50
431;DHT22;202;48.764;9.172;2023-06-26T13:46:20;31.10;16.20
431;DHT22;202;48.764;9.172;2023-06-26T13:48:47;30.90;16.20
431;DHT22;202;48.764;9.172;2023-06-26T13:51:14;30.90;16.20
431;DHT22;202;48.764;9.172;2023-06-26T13:53:41;30.80;15.90
431;DHT22;202;48.764;9.172;2023-06-26T13:56:11;30.90;16.00
431;DHT22;202;48.764;9.172;2023-06-26T13:58:38;30.70;16.10
431;DHT22;202;48.764;9.172;2023-06-26T14:01:05;30.70;15.90
431;DHT22;202;48.764;9.172;2023-06-26T14:03:40;30.70;15.60
431;DHT22;202;48.764;9.172;2023-06-26T14:06:07;30.70;14.60
431;DHT22;202;48.764;9.172;2023-06-26T14:08:34;30.70;14.60
431;DHT22;202;48.764;9.172;2023-06-26T14:11:01;30.60;14.60
431;DHT22;202;48.764;9.172;2023-06-26T14:13:29;30.60;14.80
431;DHT22;202;48.764;9.172;2023-06-26T14:15:56;30.60;14.80
431;DHT22;202;48.764;9.172;2023-06-26T14:18:23;30.70;14.90
431;DHT22;202;48.764;9.172;2023-06-26T14:20:51;30.60;14.30
431;DHT22;202;48.764;9.172;2023-06-26T14:23:23;30.60;14.50
431;DHT22;202;48.764;9.172;2023-06-26T14:25:51;30.70;14.50
431;DHT22;202;48.764;9.172;2023-06-26T14:28:22;30.70;13.50
431;DHT22;202;48.764;9.172;2023-06-26T14:30:57;30.60;13.10
431;DHT22;202;48.764;9.172;2023-06-26T14:33:27;30.60;14.00
431;DHT22;202;48.764;9.172;2023-06-26T14:36:05;30.50;14.10
431;DHT22;202;48.764;9.172;2023-06-26T14:38:41;30.40;14.30
431;DHT22;202;48.764;9.172;2023-06-26T14:41:18;30.40;14.70
431;DHT22;202;48.764;9.172;2023-06-26T14:43:47;30.50;14.10
431;DHT22;202;48.764;9.172;2023-06-26T14:46:19;30.40;14.00
431;DHT22;202;48.764;9.172;2023-06-26T14:48:51;30.40;14.50
431;DHT22;202;48.764;9.172;2023-06-26T14:51:22;30.50;14.40
431;DHT22;202;48.764;9.172;2023-06-26T14:53:57;30.60;14.10
431;DHT22;202;48.764;9.172;2023-06-26T14:56:30;30.60;14.30
431;DHT22;202;48.764;9.172;2023-06-26T14:59:00;30.60;14.10
431;DHT22;202;48.764;9.172;2023-06-26T15:01:28;30.50;14.10
431;DHT22;202;48.764;9.172;2023-06-26T15:03:56;30.50;14.20
431;DHT22;202;48.764;9.172;2023-06-26T15:06:28;30.40;14.80
431;DHT22;202;48.764;9.172;2023-06-26T15:08:56;30.40;14.70
431;DHT22;202;48.764;9.172;2023-06-26T15:11:23;30.30;15.00
431;DHT22;202;48.764;9.172;2023-06-26T15:14:00;30.20;15.00
431;DHT22;202;48.764;9.172;2023-06-26T15:16:36;30.20;14.90
431;DHT22;202;48.764;9.172;2023-06-26T15:19:07;30.20;14.90
431;DHT22;202;48.764;9.172;2023-06-26T15:21:38;30.10;15.20
431;DHT22;202;48.764;9.172;2023-06-26T15:24:11;30.10;15.50
431;DHT22;202;48.764;9.172;2023-06-26T15:26:42;30.10;15.60
431;DHT22;202;48.764;9.172;2023-06-26T15:29:15;30.10;15.50
431;DHT22;202;48.764;9.172;2023-06-26T15:31:43;30.10;15.20
431;DHT22;202;48.764;9.172;2023-06-26T15:34:13;30.20;14.80
431;DHT22;202;48.764;9.172;2023-06-26T15:36:54;30.20;14.50
431;DHT22;202;48.764;9.172;2023-06-26T15:39:26;30.10;13.60
431;DHT22;202;48.764;9.172;2023-06-26T15:42:07;30.00;13.70
431;DHT22;202;48.764;9.172;2023-06-26T15:44:38;29.90;14.10
431;DHT22;202;48.764;9.172;2023-06-26T15:47:08;29.80;14.60
431;DHT22;202;48.764;9.172;2023-06-26T15:49:38;29.80;14.60
431;DHT22;202;48.764;9.172;2023-06-26T15:52:10;29.80;14.80
431;DHT22;202;48.764;9.172;2023-06-26T15:54:44;29.80;15.00
431;DHT22;202;48.764;9.172;2023-06-26T15:57:18;29.70;14.60
431;DHT22;202;48.764;9.172;2023-06-26T16:00:05;29.60;15.00
431;DHT22;202;48.764;9.172;2023-06-26T16:02:47;29.50;15.50
431;DHT22;202;48.764;9.172;2023-06-26T16:05:16;29.50;15.00
431;DHT22;202;48.764;9.172;2023-06-26T16:07:45;29.50;15.30
431;DHT22;202;48.764;9.172;2023-06-26T16:10:21;29.30;15.40
431;DHT22;202;48.764;9.172;2023-06-26T16:12:57;29.30;15.50
431;DHT22;202;48.764;9.172;2023-06-26T16:15:27;29.30;15.70
431;DHT22;202;48.764;9.172;2023-06-26T16:17:54;29.30;16.10
431;DHT22;202;48.764;9.172;2023-06-26T16:20:24;29.20;15.70
431;DHT22;202;48.764;9.172;2023-06-26T16:23:00;29.10;15.70
431;DHT22;202;48.764;9.172;2023-06-26T16:25:31;29.10;15.80
431;DHT22;202;48.764;9.172;2023-06-26T16:41:20;28.80;15.70
431;DHT22;202;48.764;9.172;2023-06-26T16:44:42;28.70;14.80
431;DHT22;202;48.764;9.172;2023-06-26T16:50:32;28.60;14.60
431;DHT22;202;48.764;9.172;2023-06-26T17:24:46;28.00;10.20
431;DHT22;202;48.764;9.172;2023-06-26T17:27:14;27.80;11.30
431;DHT22;202;48.764;9.172;2023-06-26T17:29:49;27.80;11.30
431;DHT22;202;48.764;9.172;2023-06-26T17:32:18;27.70;10.30
431;DHT22;202;48.764;9.172;2023-06-26T17:34:51;27.70;11.30
431;DHT22;202;48.764;9.172;2023-06-26T17:37:20;27.70;10.60
431;DHT22;202;48.764;9.172;2023-06-26T17:39:52;27.60;10.20
431;DHT22;202;48.764;9.172;2023-06-26T17:42:24;27.60;10.40
431;DHT22;202;48.764;9.172;2023-06-26T17:45:01;27.50;10.90
431;DHT22;202;48.764;9.172;2023-06-26T17:47:40;27.40;10.50
431;DHT22;202;48.764;9.172;2023-06-26T17:50:08;27.30;10.90
431;DHT22;202;48.764;9.172;2023-06-26T17:52:40;27.30;11.20
431;DHT22;202;48.764;9.172;2023-06-26T17:55:18;27.30;10.50
431;DHT22;202;48.764;9.172;2023-06-26T18:00:55;27.40;10.30
431;DHT22;202;48.764;9.172;2023-06-26T18:03:26;27.30;10.90
431;DHT22;202;48.764;9.172;2023-06-26T18:05:55;27.10;10.00
431;DHT22;202;48.764;9.172;2023-06-26T18:08:22;27.20;10.50
431;DHT22;202;48.764;9.172;2023-06-26T18:10:53;27.20;11.00
431;DHT22;202;48.764;9.172;2023-06-26T18:13:39;27.20;10.40
431;DHT22;202;48.764;9.172;2023-06-26T18:16:21;27.20;10.30
431;DHT22;202;48.764;9.172;2023-06-26T18:18:55;27.10;10.30
431;DHT22;202;48.764;9.172;2023-06-26T18:21:39;27.20;10.60
431;DHT22;202;48.764;9.172;2023-06-26T18:24:29;27.10;10.30
431;DHT22;202;48.764;9.172;2023-06-26T18:27:25;27.00;10.50
431;DHT22;202;48.764;9.172;2023-06-26T18:29:55;26.90;10.70
431;DHT22;202;48.764;9.172;2023-06-26T18:32:22;27.00;11.20
431;DHT22;202;48.764;9.172;2023-06-26T18:34:51;27.00;11.20
431;DHT22;202;48.764;9.172;2023-06-26T18:37:21;26.90;10.60
431;DHT22;202;48.764;9.172;2023-06-26T18:39:50;26.80;11.10
431;DHT22;202;48.764;9.172;2023-06-26T18:42:21;26.80;11.10
431;DHT22;202;48.764;9.172;2023-06-26T18:45:05;26.70;11.00
431;DHT22;202;48.764;9.172;2023-06-26T18:47:51;26.60;11.00
431;DHT22;202;48.764;9.172;2023-06-26T18:50:43;26.50;10.90
431;DHT22;202;48.764;9.172;2023-06-26T18:53:34;26.60;11.00
431;DHT22;202;48.764;9.172;2023-06-26T18:56:05;26.50;11.00
431;DHT22;202;48.764;9.172;2023-06-26T18:58:35;26.40;11.40
431;DHT22;202;48.764;9.172;2023-06-26T19:01:02;26.40;11.20